Time;durP1;ratioP1;P1;durP2;ratioP2;P2;SDS_P1;SDS_P2;PMS_P1;PMS_P2;Temp;Humidity;BMP_temperature;BMP_pressure;BME280_temperature;BME280_humidity;BME280_pressure;Samples;Min_cycle;Max_cycle;Signal;HPM_P1;HPM_P2
2022/03/15 00:01:35;;;;;;;1.98;1.13;;;9.00;63.40;;;;;;20740928;28;20040;-75
2022/03/15 00:11:37;;;;;;;1.67;1.25;;;9.00;63.40;;;;;;20740847;28;20030;-77
2022/03/15 00:21:41;;;;;;;2.08;1.35;;;9.00;63.40;;;;;;20755624;28;20062;-76
2022/03/15 00:31:44;;;;;;;1.85;1.13;;;9.10;63.60;;;;;;20738790;28;20092;-75
2022/03/15 00:41:44;;;;;;;2.22;1.50;;;9.00;63.50;;;;;;20753978;28;20041;-75
2022/03/15 00:51:45;;;;;;;2.33;1.23;;;9.00;63.60;;;;;;20719438;28;20555;-76
2022/03/15 01:01:46;;;;;;;1.77;1.10;;;9.00;63.60;;;;;;20720416;28;20049;-75
2022/03/15 01:11:47;;;;;;;3.60;1.63;;;9.00;63.60;;;;;;20751504;28;20108;-76
2022/03/15 01:21:50;;;;;;;2.42;1.60;;;9.00;63.60;;;;;;20734916;28;20040;-75
2022/03/15 01:31:51;;;;;;;2.00;1.35;;;9.00;63.60;;;;;;20718113;28;20418;-75
2022/03/15 01:41:52;;;;;;;2.78;1.40;;;9.00;63.50;;;;;;20733095;28;20034;-75
2022/03/15 01:51:52;;;;;;;1.88;1.30;;;9.00;63.50;;;;;;20732994;28;20390;-76
2022/03/15 02:01:53;;;;;;;1.77;1.42;;;9.00;63.50;;;;;;20730601;28;20041;-75
2022/03/15 02:11:53;;;;;;;1.85;1.23;;;9.00;63.40;;;;;;21150587;22;20077;-75
2022/03/15 02:21:57;;;;;;;1.88;1.33;;;9.00;63.40;;;;;;20795061;28;20030;-75
2022/03/15 02:31:58;;;;;;;2.30;1.55;;;9.00;63.30;;;;;;20810006;28;20045;-75
2022/03/15 02:41:59;;;;;;;1.50;1.05;;;8.90;63.30;;;;;;20793688;28;20397;-76
2022/03/15 02:52:00;;;;;;;1.85;1.35;;;8.90;63.20;;;;;;20808885;28;20044;-75
2022/03/15 03:02:00;;;;;;;2.22;1.13;;;8.90;63.20;;;;;;20792743;28;20101;-74
2022/03/15 03:12:01;;;;;;;2.13;1.20;;;8.90;63.20;;;;;;20806651;28;20048;-75
2022/03/15 03:22:02;;;;;;;2.03;1.40;;;8.90;63.10;;;;;;20806226;28;20069;-75
2022/03/15 03:32:03;;;;;;;2.17;1.20;;;8.90;63.10;;;;;;20822929;28;20480;-77
2022/03/15 03:42:05;;;;;;;2.35;1.60;;;8.90;63.10;;;;;;20805381;28;20378;-77
2022/03/15 03:52:07;;;;;;;5.25;2.00;;;8.90;63.00;;;;;;20788936;28;20041;-78
2022/03/15 04:02:08;;;;;;;3.33;1.88;;;8.90;63.00;;;;;;20788638;28;20461;-77
2022/03/15 04:12:09;;;;;;;4.18;2.20;;;8.90;63.00;;;;;;20804309;28;20040;-75
2022/03/15 04:22:09;;;;;;;3.03;2.10;;;8.90;63.00;;;;;;20822597;28;20041;-74
2022/03/15 04:32:10;;;;;;;3.47;2.13;;;8.90;63.00;;;;;;20803089;28;20048;-76
2022/03/15 04:42:11;;;;;;;2.75;1.88;;;8.90;63.00;;;;;;20817413;28;20033;-78
2022/03/15 04:52:13;;;;;;;4.10;2.30;;;8.80;62.90;;;;;;20800695;28;20045;-77
2022/03/15 05:02:13;;;;;;;3.58;2.17;;;8.90;62.90;;;;;;20799160;28;20481;-77
2022/03/15 05:12:14;;;;;;;3.70;2.00;;;8.90;62.90;;;;;;20815629;28;20140;-74
2022/03/15 05:22:14;;;;;;;3.97;2.47;;;8.90;62.90;;;;;;20799481;28;20581;-75
2022/03/15 05:32:15;;;;;;;3.58;2.08;;;8.80;62.90;;;;;;20797095;28;20068;-77
2022/03/15 05:42:17;;;;;;;4.47;2.53;;;8.80;62.80;;;;;;20812724;28;20041;-75
2022/03/15 05:52:17;;;;;;;4.50;2.33;;;8.80;62.80;;;;;;20829173;28;20049;-75
2022/03/15 06:02:18;;;;;;;5.32;2.72;;;8.80;62.80;;;;;;20794993;28;20145;-74
2022/03/15 06:12:20;;;;;;;5.55;3.10;;;8.80;62.80;;;;;;20810180;28;20079;-74
2022/03/15 06:22:21;;;;;;;4.82;2.70;;;8.80;62.80;;;;;;20809682;28;20094;-75
2022/03/15 06:32:21;;;;;;;6.32;2.92;;;8.80;62.80;;;;;;20808650;28;20136;-75
2022/03/15 06:42:22;;;;;;;4.95;2.70;;;8.80;62.70;;;;;;20784955;28;20037;-78
2022/03/15 06:52:23;;;;;;;5.50;2.67;;;8.80;62.80;;;;;;20769430;28;20033;-76
2022/03/15 07:02:23;;;;;;;3.50;2.40;;;8.80;62.80;;;;;;20751595;28;20648;-70
2022/03/15 07:12:24;;;;;;;3.72;2.10;;;8.80;62.80;;;;;;20731422;28;20695;-75
2022/03/15 07:22:25;;;;;;;4.65;2.80;;;8.80;62.80;;;;;;20762018;28;20028;-82
2022/03/15 07:32:27;;;;;;;3.20;1.88;;;8.80;62.90;;;;;;20694590;28;20045;-81
2022/03/15 07:42:28;;;;;;;5.65;2.50;;;8.80;62.90;;;;;;20801929;28;20388;-76
2022/03/15 07:52:28;;;;;;;3.20;2.10;;;8.80;62.90;;;;;;20800497;28;20033;-76
2022/03/15 08:02:29;;;;;;;4.32;2.60;;;8.80;62.90;;;;;;20730792;28;20048;-75
2022/03/15 08:12:30;;;;;;;6.93;2.38;;;8.80;63.00;;;;;;20760580;28;20030;-76
2022/03/15 08:22:31;;;;;;;4.70;2.53;;;8.80;63.00;;;;;;20804288;28;20041;-75
2022/03/15 08:32:32;;;;;;;3.17;2.15;;;8.80;63.00;;;;;;20759241;28;20037;-76
2022/03/15 08:42:33;;;;;;;2.42;1.60;;;8.90;63.10;;;;;;20819873;28;20397;-74
2022/03/15 08:52:34;;;;;;;1.45;0.90;;;8.90;63.10;;;;;;20801340;28;20516;-76
2022/03/15 09:02:34;;;;;;;3.28;1.70;;;8.90;63.10;;;;;;20756808;28;20551;-74
2022/03/15 09:12:36;;;;;;;2.90;1.70;;;8.90;63.00;;;;;;20796814;28;20037;-74
2022/03/15 09:22:37;;;;;;;2.67;1.60;;;8.90;63.10;;;;;;20780066;28;20037;-74
2022/03/15 09:32:38;;;;;;;2.42;1.50;;;8.90;63.00;;;;;;20795039;28;20080;-73
2022/03/15 09:42:39;;;;;;;3.95;1.65;;;8.90;63.00;;;;;;20777131;28;20105;-77
2022/03/15 09:52:40;;;;;;;2.85;1.48;;;8.90;63.00;;;;;;20710461;28;20128;-74
2022/03/15 10:02:43;;;;;;;1.90;1.17;;;9.00;62.90;;;;;;20767261;28;20116;-73
2022/03/15 10:12:46;;;;;;;2.45;1.13;;;9.00;62.90;;;;;;20759023;28;20037;-75
2022/03/15 10:22:57;;;;;;;2.75;1.50;;;9.00;62.80;;;;;;20808584;28;20735;-74
2022/03/15 10:32:57;;;;;;;2.00;1.23;;;9.00;62.80;;;;;;20773973;28;20042;-77
2022/03/15 10:43:03;;;;;;;1.23;0.77;;;9.00;62.70;;;;;;20786252;28;20398;-74
2022/03/15 10:53:07;;;;;;;1.83;1.00;;;9.10;62.70;;;;;;20735218;28;20334;-78
2022/03/15 11:03:10;;;;;;;1.77;0.95;;;9.00;62.60;;;;;;20762953;28;20042;-77
2022/03/15 11:13:15;;;;;;;1.77;1.00;;;9.10;63.20;;;;;;20708968;28;20438;-80
2022/03/15 11:23:16;;;;;;;1.95;1.23;;;9.10;62.50;;;;;;20750442;28;20026;-73
2022/03/15 11:33:17;;;;;;;1.13;0.90;;;9.10;62.40;;;;;;20782870;28;20116;-75
2022/03/15 11:43:50;;;;;;;1.03;0.83;;;9.20;62.50;;;;;;20755221;28;20045;-76
2022/03/15 11:54:08;;;;;;;1.48;0.90;;;9.20;62.50;;;;;;20817019;28;20299;-76
2022/03/15 12:04:09;;;;;;;1.88;1.02;;;9.20;62.50;;;;;;20761341;28;20045;-73
2022/03/15 12:14:15;;;;;;;1.75;0.88;;;9.20;62.50;;;;;;20801157;28;20053;-73
2022/03/15 12:24:18;;;;;;;1.93;1.00;;;9.20;62.40;;;;;;20734775;28;20719;-73
2022/03/15 12:34:19;;;;;;;1.92;0.90;;;9.20;62.40;;;;;;20736134;28;20045;-72
2022/03/15 12:44:40;;;;;;;1.67;1.13;;;9.30;62.40;;;;;;20715600;28;20030;-75
2022/03/15 12:54:41;;;;;;;1.13;0.80;;;9.30;62.40;;;;;;20767268;28;20668;-76
2022/03/15 13:04:42;;;;;;;1.65;0.93;;;9.20;62.40;;;;;;20720929;28;20033;-76
2022/03/15 13:14:46;;;;;;;4.03;1.08;;;9.20;62.40;;;;;;20825705;28;20034;-76
2022/03/15 13:24:47;;;;;;;1.98;1.05;;;9.30;62.40;;;;;;20778863;28;20033;-75
2022/03/15 13:34:54;;;;;;;1.83;0.90;;;9.20;62.40;;;;;;20747757;28;20038;-76
2022/03/15 13:44:54;;;;;;;1.20;0.70;;;9.30;62.50;;;;;;20794413;28;20296;-73
2022/03/15 13:55:10;;;;;;;0.30;0.30;;;9.30;62.50;;;;;;20811038;28;20068;-74
2022/03/15 14:05:14;;;;;;;1.45;0.68;;;9.30;62.40;;;;;;20736157;28;20041;-74
2022/03/15 14:15:16;;;;;;;2.15;1.00;;;9.30;62.50;;;;;;20770391;28;20049;-73
2022/03/15 14:25:24;;;;;;;1.27;0.95;;;9.30;62.50;;;;;;20729319;28;20555;-73
2022/03/15 14:35:31;;;;;;;1.15;0.82;;;9.30;62.50;;;;;;20712259;28;20108;-77
2022/03/15 14:45:34;;;;;;;3.63;1.23;;;9.30;62.50;;;;;;20714939;28;20406;-76
2022/03/15 14:55:36;;;;;;;2.88;0.80;;;9.40;62.60;;;;;;20774407;28;20037;-77
2022/03/15 15:05:40;;;;;;;1.48;0.98;;;9.40;62.60;;;;;;20777247;28;20034;-77
2022/03/15 15:15:44;;;;;;;5.13;1.05;;;9.40;62.70;;;;;;20718879;28;20050;-75
2022/03/15 15:25:45;;;;;;;6.28;1.10;;;9.40;62.90;;;;;;20718222;28;20037;-81
2022/03/15 15:35:46;;;;;;;5.25;1.73;;;9.40;62.90;;;;;;20756142;28;20401;-77
2022/03/15 15:45:49;;;;;;;10.00;1.95;;;9.50;63.10;;;;;;20772387;28;20483;-73
2022/03/15 15:55:55;;;;;;;21.27;2.05;;;9.40;63.30;;;;;;20756224;28;20485;-76
2022/03/15 16:05:56;;;;;;;3.28;1.73;;;9.40;63.60;;;;;;20766249;28;20061;-75
2022/03/15 16:15:56;;;;;;;4.65;1.55;;;9.40;63.60;;;;;;20786228;28;20467;-75
2022/03/15 16:25:57;;;;;;;3.88;1.45;;;9.40;63.60;;;;;;20830472;28;20046;-73
2022/03/15 16:35:58;;;;;;;3.05;1.42;;;9.50;63.70;;;;;;20814802;28;20037;-74
2022/03/15 16:45:58;;;;;;;4.07;1.83;;;9.50;63.60;;;;;;20797815;28;20052;-74
2022/03/15 16:56:01;;;;;;;2.50;1.50;;;9.40;63.60;;;;;;20793153;28;20117;-74
2022/03/15 17:06:02;;;;;;;3.13;1.10;;;9.40;63.60;;;;;;20731813;28;20521;-75
2022/03/15 17:16:03;;;;;;;3.35;1.35;;;9.40;63.60;;;;;;20715528;28;20041;-75
2022/03/15 17:26:07;;;;;;;2.92;1.30;;;9.40;63.60;;;;;;20733266;28;20103;-72
2022/03/15 17:36:09;;;;;;;5.30;1.27;;;9.40;63.70;;;;;;20733792;28;20033;-73
2022/03/15 17:46:11;;;;;;;3.55;0.95;;;9.40;63.70;;;;;;20717167;28;20060;-73
2022/03/15 17:56:15;;;;;;;0.95;0.80;;;9.40;63.70;;;;;;20714884;28;20132;-77
2022/03/15 18:06:15;;;;;;;2.50;1.02;;;9.40;63.70;;;;;;20715628;28;20116;-77
2022/03/15 18:16:17;;;;;;;3.92;1.38;;;9.40;63.70;;;;;;20717330;28;20696;-80
2022/03/15 18:26:18;;;;;;;2.40;1.25;;;9.40;63.70;;;;;;20731671;28;20436;-75
2022/03/15 18:36:20;;;;;;;2.55;1.15;;;9.40;63.70;;;;;;20775916;28;20401;-76
2022/03/15 18:46:30;;;;;;;1.33;0.80;;;9.40;63.80;;;;;;20795328;28;20120;-74
2022/03/15 18:56:31;;;;;;;3.05;1.25;;;9.40;63.90;;;;;;20796541;28;20401;-75
2022/03/15 19:06:39;;;;;;;2.20;1.13;;;9.40;63.90;;;;;;20796029;28;20033;-77
2022/03/15 19:16:42;;;;;;;4.40;1.33;;;9.40;64.00;;;;;;20779304;28;20123;-75
2022/03/15 19:26:43;;;;;;;1.67;0.88;;;9.40;64.00;;;;;;20811638;28;20050;-75
2022/03/15 19:36:46;;;;;;;7.07;1.45;;;9.40;64.00;;;;;;20721705;28;20046;-75
2022/03/15 19:46:49;;;;;;;2.90;1.55;;;9.40;64.10;;;;;;20728221;28;20033;-75
2022/03/15 19:56:50;;;;;;;3.10;1.58;;;9.40;64.10;;;;;;20752256;28;20507;-77
2022/03/15 20:06:52;;;;;;;3.17;1.48;;;9.40;64.20;;;;;;20759497;28;20493;-75
2022/03/15 20:16:53;;;;;;;2.63;1.40;;;9.40;64.20;;;;;;20743522;28;20088;-75
2022/03/15 20:26:54;;;;;;;2.38;1.30;;;9.40;64.30;;;;;;20744846;28;20116;-77
2022/03/15 20:36:56;;;;;;;4.30;1.92;;;9.40;64.30;;;;;;20806729;28;20183;-75
2022/03/15 20:47:01;;;;;;;3.33;1.80;;;9.40;64.40;;;;;;20804819;28;20609;-75
2022/03/15 20:57:07;;;;;;;4.47;2.13;;;9.30;64.30;;;;;;20788272;28;20037;-77
2022/03/15 21:07:09;;;;;;;4.40;2.13;;;9.30;64.40;;;;;;20821124;28;20075;-75
2022/03/15 21:17:11;;;;;;;3.70;1.58;;;9.30;64.40;;;;;;20819944;28;20040;-75
2022/03/15 21:27:11;;;;;;;4.53;1.92;;;9.40;64.50;;;;;;20819584;28;20045;-79
2022/03/15 21:37:15;;;;;;;4.68;2.50;;;9.40;64.50;;;;;;20818968;28;20095;-75
2022/03/15 21:47:17;;;;;;;4.32;2.35;;;9.30;64.50;;;;;;20802147;28;20428;-75
2022/03/15 21:57:19;;;;;;;5.10;2.70;;;9.30;64.50;;;;;;20799663;28;20420;-73
2022/03/15 22:07:20;;;;;;;7.95;3.00;;;9.30;64.60;;;;;;20800039;28;20053;-76
2022/03/15 22:17:45;;;;;;;3.75;2.13;;;9.30;64.60;;;;;;20800212;28;20029;-76
2022/03/15 22:27:42;;;;;;;4.55;3.05;;;9.30;64.60;;;;;;20801439;28;20072;-77
2022/03/15 23:18:59;;;;;;;4.70;2.63;;;9.30;64.60;;;;;;20798193;28;20037;-77
2022/03/15 23:29:00;;;;;;;6.97;3.80;;;9.30;64.60;;;;;;20812823;28;20568;-77
2022/03/15 23:39:00;;;;;;;5.40;2.97;;;9.30;64.60;;;;;;20779588;28;20395;-76
2022/03/15 23:49:01;;;;;;;6.47;2.78;;;9.30;64.60;;;;;;20777044;28;20034;-78
2022/03/15 23:59:02;;;;;;;5.57;3.75;;;9.30;64.60;;;;;;20793359;28;20400;-77
